Aloha, Louisiana
Current Conditions -  °F | °C
As of 8:53 PM on Friday 19 Dec 2014 (Local Time) from KAEX Reporting Station
Overcast Overcast  
Wind Chill: 45°   Ceiling: 600
Heat Index: 48°   Visibility: 10mi
Dew Point: 46°   Wind: 7mph
Humidity: 93%   Direction: 20°NNE
Pressure: 30.13"   Gusts: NA
Location:  31.503°N, 92.6476°W
Report Text: KAEX 200253Z 02006KT 10SM OVC006 09/08 A3013 RMK AO2 RAE0156B17E43 SLP208 P0000 60000 T00890078 51019
Loading
Personal Weather Stations






























Interactive Weather Map New forecast layout! Learn more

10-Day Weather Forecast

Advertisements
Track Severe Weather on mobile